Time;durP1;ratioP1;P1;durP2;ratioP2;P2;SDS_P1;SDS_P2;PMS_P1;PMS_P2;Temp;Humidity;BMP_temperature;BMP_pressure;BME280_temperature;BME280_humidity;BME280_pressure;Samples;Min_cycle;Max_cycle;Signal;HPM_P1;HPM_P2
2021/11/14 00:01:08;;;;;;;54.20;33.25;;;;;;;6.26;66.31;94752.47;833081;71;29474;-81
2021/11/14 00:16:10;;;;;;;62.48;41.37;;;;;;;6.15;66.65;94743.83;833591;71;29426;-80
2021/11/14 00:31:08;;;;;;;53.02;32.73;;;;;;;6.06;66.34;94751.84;833293;71;29762;-82
2021/11/14 00:47:00;;;;;;;49.48;32.90;;;;;;;5.93;66.44;94761.39;826808;71;28005;-82
2021/11/14 01:01:10;;;;;;;46.20;30.82;;;;;;;5.86;66.47;94753.00;827411;71;30279;-79
2021/11/14 01:16:18;;;;;;;48.80;30.75;;;;;;;5.85;67.44;94747.02;833111;71;33240;-81
2021/11/14 01:31:09;;;;;;;53.08;33.08;;;;;;;5.85;68.01;94741.81;833383;71;29845;-82
2021/11/14 01:46:09;;;;;;;43.50;29.30;;;;;;;5.84;67.75;94736.35;833427;71;29696;-81
2021/11/14 02:01:17;;;;;;;48.78;31.45;;;;;;;5.80;67.68;94737.89;827772;71;29839;-80
2021/11/14 02:16:17;;;;;;;57.38;34.05;;;;;;;5.74;68.11;94734.98;833334;71;32748;-79
2021/11/14 02:31:12;;;;;;;43.02;29.60;;;;;;;5.77;67.78;94733.95;833535;71;31956;-83
2021/11/14 02:46:15;;;;;;;45.50;31.00;;;;;;;5.81;67.62;94727.20;826978;71;32733;-81
2021/11/14 03:16:11;;;;;;;51.68;31.35;;;;;;;5.59;67.29;94734.34;829428;71;29923;-82
2021/11/14 03:31:19;;;;;;;46.60;30.75;;;;;;;5.49;67.21;94738.18;826725;71;33267;-81
2021/11/14 03:46:09;;;;;;;55.10;32.28;;;;;;;5.22;67.78;94746.30;828112;71;29794;-80
2021/11/14 04:01:11;;;;;;;53.70;29.80;;;;;;;4.84;68.28;94748.54;827771;71;27449;-81
2021/11/14 04:16:10;;;;;;;47.05;28.47;;;;;;;4.65;70.17;94759.78;825999;71;29520;-82
2021/11/14 04:31:09;;;;;;;41.83;26.40;;;;;;;4.58;71.30;94760.47;834071;71;30584;-82
2021/11/14 04:46:15;;;;;;;50.17;29.30;;;;;;;4.54;71.70;94752.89;833720;71;33159;-83
2021/11/14 05:01:10;;;;;;;50.20;28.90;;;;;;;4.58;72.54;94772.97;827528;71;30287;-83
2021/11/14 05:16:12;;;;;;;50.20;27.22;;;;;;;4.58;72.59;94782.07;827245;71;32156;-83
2021/11/14 05:31:09;;;;;;;46.53;25.72;;;;;;;4.62;73.51;94790.14;828005;71;27509;-82
2021/11/14 05:46:15;;;;;;;45.23;25.62;;;;;;;4.72;73.44;94805.08;833616;71;32772;-79
2021/11/14 06:01:14;;;;;;;47.03;24.92;;;;;;;4.77;73.99;94822.82;827492;71;29669;-76
2021/11/14 06:16:15;;;;;;;44.42;24.35;;;;;;;4.75;74.12;94834.50;826769;71;32770;-76
2021/11/14 06:31:09;;;;;;;46.53;26.30;;;;;;;4.79;73.96;94838.95;828168;71;30192;-75
2021/11/14 06:46:09;;;;;;;49.23;28.20;;;;;;;4.90;73.58;94842.45;827996;71;29708;-78
2021/11/14 07:01:09;;;;;;;47.08;27.45;;;;;;;5.07;72.89;94853.29;817911;70;30651;-77
2021/11/14 07:16:15;;;;;;;51.77;30.80;;;;;;;5.17;72.39;94841.20;827533;70;32765;-77
2021/11/14 07:31:08;;;;;;;55.60;31.07;;;;;;;5.42;71.17;94852.89;814896;70;29493;-78
2021/11/14 07:46:10;;;;;;;33.80;22.17;;;;;;;5.74;70.92;94852.14;819428;70;30065;-79
2021/11/14 08:01:15;;;;;;;34.15;20.80;;;;;;;6.56;69.72;94849.58;818558;70;33300;-79
2021/11/14 08:16:09;;;;;;;52.73;28.92;;;;;;;6.89;68.04;94839.81;820683;71;29859;-77
2021/11/14 08:31:09;;;;;;;50.10;29.25;;;;;;;6.54;68.63;94848.27;829686;70;30296;-75
2021/11/14 08:46:15;;;;;;;48.33;29.95;;;;;;;7.10;67.09;94838.07;822101;71;32711;-77
2021/11/14 09:16:09;;;;;;;52.03;30.80;;;;;;;8.99;62.95;94825.39;827760;70;30204;-78
2021/11/14 09:31:10;;;;;;;50.70;32.55;;;;;;;10.00;59.96;94813.22;827384;71;30265;-76
2021/11/14 09:46:09;;;;;;;52.03;32.48;;;;;;;11.81;56.20;94804.22;833427;71;30324;-75
2021/11/14 10:01:09;;;;;;;54.30;35.50;;;;;;;13.40;51.95;94786.02;823581;70;30318;-78
2021/11/14 10:16:19;;;;;;;47.43;33.20;;;;;;;14.63;47.60;94769.30;829725;70;32557;-79
2021/11/14 10:31:09;;;;;;;65.40;45.25;;;;;;;15.16;53.77;94741.11;818258;70;29444;-76
2021/11/14 10:46:20;;;;;;;42.70;29.50;;;;;;;15.71;44.03;94733.07;832107;71;29715;-76
2021/11/14 11:01:10;;;;;;;46.33;31.35;;;;;;;15.00;44.10;94716.22;830264;70;29375;-76
2021/11/14 11:16:25;;;;;;;44.42;32.45;;;;;;;15.07;44.74;94701.25;824887;71;33200;-76
2021/11/14 11:31:12;;;;;;;45.40;31.30;;;;;;;15.16;44.19;94676.90;821134;71;30281;-75
2021/11/14 11:46:12;;;;;;;46.10;32.10;;;;;;;14.19;45.40;94673.84;833154;70;30432;-78
2021/11/14 12:01:28;;;;;;;45.55;30.97;;;;;;;14.22;46.27;94675.88;827424;71;29744;-77
2021/11/14 12:16:17;;;;;;;43.63;31.05;;;;;;;13.93;46.75;94663.19;819233;70;33107;-78
2021/11/14 12:31:15;;;;;;;41.88;29.50;;;;;;;14.04;47.13;94667.13;824527;71;29748;-76
2021/11/14 12:46:12;;;;;;;46.18;30.25;;;;;;;14.04;47.77;94669.77;831872;71;29782;-77
2021/11/14 13:01:16;;;;;;;47.55;32.65;;;;;;;13.67;47.68;94670.45;825056;70;33471;-77
2021/11/14 13:16:12;;;;;;;46.18;31.55;;;;;;;12.93;49.45;94665.58;833591;71;30361;-77
2021/11/14 13:31:23;;;;;;;44.40;32.58;;;;;;;12.72;50.81;94658.67;833650;71;30834;-79
2021/11/14 13:46:18;;;;;;;48.48;31.82;;;;;;;13.12;57.43;94649.59;833131;71;33541;-77
2021/11/14 14:01:22;;;;;;;43.83;31.97;;;;;;;12.36;52.51;94644.40;832308;71;32994;-80
2021/11/14 14:16:08;;;;;;;39.88;27.90;;;;;;;12.82;56.21;94660.54;827740;71;29682;-79
2021/11/14 14:31:17;;;;;;;44.05;30.25;;;;;;;12.19;56.08;94661.34;833710;71;32717;-79
2021/11/14 14:46:11;;;;;;;34.45;24.12;;;;;;;11.88;59.38;94669.78;834844;71;30182;-80
2021/11/14 15:16:22;;;;;;;52.53;36.90;;;;;;;14.07;52.66;94676.28;820143;71;33757;-76
2021/11/14 15:31:11;;;;;;;79.53;46.55;;;;;;;12.46;56.37;94685.52;809710;71;30253;-76
2021/11/14 16:01:52;;;;;;;;;;;;;;;;;;;;;
2021/11/14 18:16:37;;;;;;;;;;;;;;;;;;;;;
2021/11/14 19:01:42;;;;;;;87.27;52.78;;;;;;;7.69;72.39;94844.70;847541;69;32768;-81
2021/11/14 19:47:06;;;;;;;;;;;;;;;;;;;;;
2021/11/14 20:01:13;;;;;;;89.72;54.95;;;;;;;7.68;67.46;94868.45;833791;71;32195;-82
2021/11/14 20:16:20;;;;;;;81.50;51.30;;;;;;;7.70;68.15;94867.15;825345;70;32231;-80
2021/11/14 20:31:26;;;;;;;89.85;53.40;;;;;;;7.62;67.46;94868.97;831703;71;32889;-81
2021/11/14 20:46:40;;;;;;;100.40;58.80;;;;;;;7.55;67.53;94873.67;831006;71;33423;-82
2021/11/14 21:16:43;;;;;;;91.42;57.70;;;;;;;7.33;68.24;94892.92;826151;71;32906;-81
2021/11/14 21:31:17;;;;;;;92.78;54.67;;;;;;;7.35;68.17;94913.03;828265;71;32643;-82
2021/11/14 22:01:42;;;;;;;93.80;57.25;;;;;;;6.85;69.01;94894.05;833555;71;32854;-82
2021/11/14 22:16:39;;;;;;;91.30;52.62;;;;;;;6.97;69.14;94940.27;834423;71;32761;-80
2021/11/14 22:31:27;;;;;;;75.83;45.38;;;;;;;6.84;69.53;94936.83;830083;71;32909;-81
2021/11/14 23:01:20;;;;;;;78.05;43.13;;;;;;;6.39;70.39;94942.27;823849;71;32505;-79
2021/11/14 23:16:20;;;;;;;68.42;42.48;;;;;;;5.98;70.41;94891.66;827016;71;32711;-81
2021/11/14 23:31:52;;;;;;;73.55;43.30;;;;;;;6.21;70.54;94945.27;833193;71;33380;-80
2021/11/14 23:46:29;;;;;;;63.92;40.80;;;;;;;6.10;70.48;94951.41;833473;71;33643;-80
